^^
Datos históricos de la estación: Murcia-Puente Tocinos
Diario Informe para Octubre 18, 2021 Unidades:  Ambas    Ingés   Métrico
Diario Semanal Mensual Anual
  Máxima: Mínima: Promedio:
Temperatura: 76.6 °F /  24.8 °C 62.8 °F /  17.1 °C 68.4 °F /  20.2 °C
Punto de rocio: 62.8 °F /  17.1 °C 58.5 °F /  14.7 °C 61 °F /  16.1 °C
Humedad: 89% 57% 78%
Velocidad viento: 7.6mph /  12.2km/h - 3.5mph /  5.6km/h
Racha viento: 13.8mph /  22.2km/h - -
Viento- - SE
Presión: 30.3 in /  1024.5 hPa 30.1 in /  1019.9 hPa -
Precipitación: 0 in /  0.0 mm    
 
 
Tabla de datos para Octubre 18, 2021
Hora Temperatura Punto de rocio Presión Viento Velocidad viento Racha viento Humedad Intensidad lluvia(por hora) Nubes
00:04 65.8 °F /  18.8 °C 61.5 °F /  16.4 °C 30.1in /  1019.9hPa NNE 4mph /  6.4km/h 7.4mph /  11.9km/h 86% 0in /  0.0mm
00:09 65.8 °F /  18.8 °C 61.9 °F /  16.6 °C 30.1in /  1019.9hPa NNE 4.2mph /  6.8km/h 6.9mph /  11.1km/h 86.8% 0in /  0.0mm
00:14 65.7 °F /  18.7 °C 61.7 °F /  16.5 °C 30.1in /  1019.9hPa NNE 4.7mph /  7.6km/h 7.4mph /  11.9km/h 87% 0in /  0.0mm
00:19 65.7 °F /  18.7 °C 61.7 °F /  16.5 °C 30.1in /  1019.9hPa NE 4.4mph /  7.1km/h 7.4mph /  11.9km/h 87% 0in /  0.0mm
00:24 65.7 °F /  18.7 °C 61.7 °F /  16.5 °C 30.1in /  1020.0hPa NE 4mph /  6.4km/h 8.1mph /  13km/h 87% 0in /  0.0mm
00:29 65.5 °F /  18.6 °C 61.5 °F /  16.4 °C 30.1in /  1020.0hPa NNE 4.3mph /  6.9km/h 6.9mph /  11.1km/h 87% 0in /  0.0mm
00:34 65.3 °F /  18.5 °C 61.5 °F /  16.4 °C 30.1in /  1020.0hPa NNE 4.7mph /  7.6km/h 5.8mph /  9.3km/h 87.5% 0in /  0.0mm
00:39 65.1 °F /  18.4 °C 61.5 °F /  16.4 °C 30.1in /  1020.0hPa NNE 4.2mph /  6.8km/h 5.2mph /  8.4km/h 88% 0in /  0.0mm
00:44 64.9 °F /  18.3 °C 61.3 °F /  16.3 °C 30.1in /  1020.0hPa North 3.6mph /  5.8km/h 4.7mph /  7.6km/h 88% 0in /  0.0mm
00:49 64.8 °F /  18.2 °C 61.2 °F /  16.2 °C 30.1in /  1020.0hPa NNE 3.3mph /  5.3km/h 4.6mph /  7.4km/h 88% 0in /  0.0mm
00:54 64.8 °F /  18.2 °C 61.2 °F /  16.2 °C 30.1in /  1020.0hPa NNE 2.9mph /  4.7km/h 3.6mph /  5.8km/h 88% 0in /  0.0mm
00:59 64.8 °F /  18.2 °C 61.2 °F /  16.2 °C 30.1in /  1020.0hPa NNE 2.4mph /  3.9km/h 3.5mph /  5.6km/h 88% 0in /  0.0mm
01:04 64.6 °F /  18.1 °C 61 °F /  16.1 °C 30.1in /  1020.0hPa NNE 1.8mph /  2.9km/h 3.6mph /  5.8km/h 88% 0in /  0.0mm
01:09 64.6 °F /  18.1 °C 61 °F /  16.1 °C 30.1in /  1020.1hPa NNE 1.9mph /  3km/h 2.3mph /  3.7km/h 88.3% 0in /  0.0mm
01:14 64.6 °F /  18.1 °C 61.3 °F /  16.3 °C 30.1in /  1020.1hPa NNE 2mph /  3.2km/h 2.4mph /  3.9km/h 89% 0in /  0.0mm
01:19 64.6 °F /  18.1 °C 61.3 °F /  16.3 °C 30.1in /  1020.1hPa NNE 1.2mph /  1.9km/h 4mph /  6.4km/h 89% 0in /  0.0mm
01:24 64.6 °F /  18.1 °C 61.2 °F /  16.2 °C 30.1in /  1020.1hPa Calm   5.9mph /  9.5km/h 89% 0in /  0.0mm
01:29 64.6 °F /  18.1 °C 61.3 °F /  16.3 °C 30.1in /  1020.1hPa NE 1.2mph /  1.9km/h 4.6mph /  7.4km/h 89% 0in /  0.0mm
01:34 64.6 °F /  18.1 °C 61.3 °F /  16.3 °C 30.1in /  1020.1hPa NE 2.9mph /  4.7km/h 4.6mph /  7.4km/h 89% 0in /  0.0mm
01:39 64.6 °F /  18.1 °C 61.3 °F /  16.3 °C 30.1in /  1020.2hPa NE 2.7mph /  4.3km/h 4.6mph /  7.4km/h 89% 0in /  0.0mm
01:44 64.6 °F /  18.1 °C 61.3 °F /  16.3 °C 30.1in /  1020.2hPa NNE 2.4mph /  3.9km/h 4.6mph /  7.4km/h 89% 0in /  0.0mm
01:49 64.6 °F /  18.1 °C 61.3 °F /  16.3 °C 30.1in /  1020.2hPa NNE 2.6mph /  4.2km/h 4.6mph /  7.4km/h 89% 0in /  0.0mm
01:54 64.6 °F /  18.1 °C 61.3 °F /  16.3 °C 30.1in /  1020.2hPa NNE 2.9mph /  4.7km/h 4.7mph /  7.6km/h 89% 0in /  0.0mm
01:59 64.6 °F /  18.1 °C 61.3 °F /  16.3 °C 30.1in /  1020.2hPa NNE 3mph /  4.8km/h 5.2mph /  8.4km/h 89% 0in /  0.0mm
02:04 64.6 °F /  18.1 °C 61.3 °F /  16.3 °C 30.1in /  1020.2hPa NNE 3.1mph /  5km/h 5.2mph /  8.4km/h 89% 0in /  0.0mm
02:09 64.6 °F /  18.1 °C 61.3 °F /  16.3 °C 30.1in /  1020.2hPa NE 3.3mph /  5.3km/h 4.6mph /  7.4km/h 89% 0in /  0.0mm
02:14 64.6 °F /  18.1 °C 61.3 °F /  16.3 °C 30.1in /  1020.2hPa NE 3.6mph /  5.8km/h 4.6mph /  7.4km/h 89% 0in /  0.0mm
02:19 64.6 °F /  18.1 °C 61.3 °F /  16.3 °C 30.1in /  1020.2hPa NE 3.3mph /  5.3km/h 4.6mph /  7.4km/h 89% 0in /  0.0mm
02:24 64.6 °F /  18.1 °C 61.3 °F /  16.3 °C 30.1in /  1020.2hPa Este 2.9mph /  4.7km/h 4.6mph /  7.4km/h 89% 0in /  0.0mm
02:29 64.2 °F /  17.9 °C 60.8 °F /  16 °C 30.1in /  1020.2hPa Este 2.9mph /  4.7km/h 4.7mph /  7.6km/h 88.5% 0in /  0.0mm
02:34 64 °F /  17.8 °C 60.4 °F /  15.8 °C 30.1in /  1020.2hPa ESE 2.9mph /  4.7km/h 4.6mph /  7.4km/h 88% 0in /  0.0mm
02:39 64 °F /  17.8 °C 60.6 °F /  15.9 °C 30.1in /  1020.2hPa ESE 2.7mph /  4.3km/h 3.5mph /  5.6km/h 88.8% 0in /  0.0mm
02:44 64 °F /  17.8 °C 60.6 °F /  15.9 °C 30.1in /  1020.2hPa ESE 2.4mph /  3.9km/h   88.7% 0in /  0.0mm
02:49 64 °F /  17.8 °C 60.4 °F /  15.8 °C 30.1in /  1020.2hPa ESE 1.4mph /  2.3km/h   88% 0in /  0.0mm
02:54 64 °F /  17.8 °C 60.6 °F /  15.9 °C 30.1in /  1020.2hPa Calm     88.8% 0in /  0.0mm
02:59 64 °F /  17.8 °C 60.6 °F /  15.9 °C 30.1in /  1020.2hPa Calm   2.4mph /  3.9km/h 88.5% 0in /  0.0mm
03:04 64 °F /  17.8 °C 60.4 °F /  15.8 °C 30.1in /  1020.2hPa Calm   2.3mph /  3.7km/h 88% 0in /  0.0mm
03:09 64 °F /  17.8 °C 60.4 °F /  15.8 °C 30.1in /  1020.2hPa Calm   2.3mph /  3.7km/h 88% 0in /  0.0mm
03:14 64 °F /  17.8 °C 60.4 °F /  15.8 °C 30.1in /  1020.1hPa Calm   2.4mph /  3.9km/h 88% 0in /  0.0mm
03:19 64 °F /  17.8 °C 60.4 °F /  15.8 °C 30.1in /  1020.1hPa ESE 0.6mph /  0.9km/h 2.3mph /  3.7km/h 88% 0in /  0.0mm
03:24 64 °F /  17.8 °C 60.4 °F /  15.8 °C 30.1in /  1020.1hPa ESE 1.4mph /  2.3km/h 2.9mph /  4.7km/h 88% 0in /  0.0mm
03:29 64 °F /  17.8 °C 60.4 °F /  15.8 °C 30.1in /  1020.0hPa ESE 1.4mph /  2.3km/h 2.4mph /  3.9km/h 88% 0in /  0.0mm
03:34 64 °F /  17.8 °C 60.4 °F /  15.8 °C 30.1in /  1020.0hPa ESE 1.4mph /  2.3km/h   88% 0in /  0.0mm
03:39 64 °F /  17.8 °C 60.4 °F /  15.8 °C 30.1in /  1020.1hPa ESE 0.8mph /  1.3km/h   88.3% 0in /  0.0mm
03:44 64 °F /  17.8 °C 60.6 °F /  15.9 °C 30.1in /  1020.1hPa Calm   2.4mph /  3.9km/h 89% 0in /  0.0mm
03:49 64 °F /  17.8 °C 60.6 °F /  15.9 °C 30.1in /  1020.1hPa Calm   2.4mph /  3.9km/h 89% 0in /  0.0mm
03:54 64 °F /  17.8 °C 60.4 °F /  15.8 °C 30.1in /  1020.2hPa Calm   3.5mph /  5.6km/h 88.3% 0in /  0.0mm
03:59 64 °F /  17.8 °C 60.4 °F /  15.8 °C 30.1in /  1020.2hPa SE 0.6mph /  1km/h 3.1mph /  5km/h 88% 0in /  0.0mm
04:04 64 °F /  17.8 °C 60.4 °F /  15.8 °C 30.1in /  1020.2hPa SE 1.4mph /  2.3km/h 3.5mph /  5.6km/h 88% 0in /  0.0mm
04:09 64 °F /  17.8 °C 60.4 °F /  15.8 °C 30.1in /  1020.2hPa SE 1.6mph /  2.5km/h 3.6mph /  5.8km/h 88% 0in /  0.0mm
04:14 64 °F /  17.8 °C 60.4 °F /  15.8 °C 30.1in /  1020.1hPa SSE 1.8mph /  2.9km/h 4.6mph /  7.4km/h 88% 0in /  0.0mm
04:19 63.9 °F /  17.7 °C 60.3 °F /  15.7 °C 30.1in /  1020.1hPa SSE 2.2mph /  3.6km/h 4.7mph /  7.6km/h 87.7% 0in /  0.0mm
04:24 63.9 °F /  17.7 °C 59.9 °F /  15.5 °C 30.1in /  1020.1hPa SSE 2.9mph /  4.7km/h 5.8mph /  9.3km/h 87% 0in /  0.0mm
04:29 63.7 °F /  17.6 °C 59.7 °F /  15.4 °C 30.1in /  1019.9hPa Sur 3.2mph /  5.1km/h 5.4mph /  8.7km/h 87% 0in /  0.0mm
04:34 63.7 °F /  17.6 °C 59.7 °F /  15.4 °C 30.1in /  1019.9hPa SSE 3.6mph /  5.8km/h 5.8mph /  9.3km/h 87% 0in /  0.0mm
04:39 63.5 °F /  17.5 °C 59.2 °F /  15.1 °C 30.1in /  1019.9hPa SSE 3.6mph /  5.8km/h 5.8mph /  9.3km/h 86% 0in /  0.0mm
04:44 63.5 °F /  17.5 °C 59.2 °F /  15.1 °C 30.1in /  1019.9hPa SSO 3.6mph /  5.8km/h 5.2mph /  8.4km/h 86% 0in /  0.0mm
04:49 63.7 °F /  17.6 °C 59.4 °F /  15.2 °C 30.1in /  1019.9hPa SO 3.3mph /  5.3km/h 4.6mph /  7.4km/h 86% 0in /  0.0mm
04:54 63.7 °F /  17.6 °C 59.4 °F /  15.2 °C 30.1in /  1020.1hPa OSO 2.9mph /  4.7km/h 4.7mph /  7.6km/h 86% 0in /  0.0mm
04:59 63.7 °F /  17.6 °C 59.4 °F /  15.2 °C 30.1in /  1020.1hPa Oeste 3mph /  4.8km/h 5.4mph /  8.7km/h 86% 0in /  0.0mm
05:04 63.7 °F /  17.6 °C 59.4 °F /  15.2 °C 30.1in /  1020.1hPa OSO 3.1mph /  5km/h 5.9mph /  9.5km/h 86% 0in /  0.0mm
05:09 63.5 °F /  17.5 °C 59.4 °F /  15.2 °C 30.1in /  1020.2hPa OSO 3.3mph /  5.3km/h 5.2mph /  8.4km/h 86.5% 0in /  0.0mm
05:14 63.3 °F /  17.4 °C 59.4 °F /  15.2 °C 30.1in /  1020.2hPa OSO 3.6mph /  5.8km/h 4.6mph /  7.4km/h 87% 0in /  0.0mm
05:19 63.3 °F /  17.4 °C 59.4 °F /  15.2 °C 30.1in /  1020.2hPa SSO 3.1mph /  5km/h 4.6mph /  7.4km/h 87% 0in /  0.0mm
05:24 63.3 °F /  17.4 °C 59.5 °F /  15.3 °C 30.1in /  1020.2hPa Sur 2.4mph /  3.9km/h 3.6mph /  5.8km/h 87% 0in /  0.0mm
05:29 63.5 °F /  17.5 °C 59.5 °F /  15.3 °C 30.1in /  1020.2hPa SE 2.6mph /  4.2km/h 6.4mph /  10.3km/h 87% 0in /  0.0mm
05:34 63.3 °F /  17.4 °C 59.4 °F /  15.2 °C 30.1in /  1020.2hPa SE 2.9mph /  4.7km/h 6.9mph /  11.1km/h 86.4% 0in /  0.0mm
05:39 63.3 °F /  17.4 °C 59.2 °F /  15.1 °C 30.1in /  1020.3hPa SE 3.5mph /  5.6km/h 5.8mph /  9.3km/h 86% 0in /  0.0mm
05:44 63.1 °F /  17.3 °C 58.8 °F /  14.9 °C 30.1in /  1020.3hPa SSE 4.3mph /  6.9km/h 4.7mph /  7.6km/h 86% 0in /  0.0mm
05:49 63 °F /  17.2 °C 58.8 °F /  14.9 °C 30.1in /  1020.3hPa SSE 4mph /  6.4km/h 6.9mph /  11.1km/h 86% 0in /  0.0mm
05:54 63 °F /  17.2 °C 58.6 °F /  14.8 °C 30.1in /  1020.3hPa SSE 3.6mph /  5.8km/h 5.9mph /  9.5km/h 86% 0in /  0.0mm
05:59 62.8 °F /  17.1 °C 58.5 °F /  14.7 °C 30.1in /  1020.3hPa Sur 3.8mph /  6.1km/h 5.2mph /  8.4km/h 86% 0in /  0.0mm
06:04 62.8 °F /  17.1 °C 58.8 °F /  14.9 °C 30.1in /  1020.3hPa Sur 4mph /  6.4km/h 4.7mph /  7.6km/h 87% 0in /  0.0mm
06:09 62.8 °F /  17.1 °C 58.8 °F /  14.9 °C 30.1in /  1020.4hPa SSO 3.5mph /  5.7km/h 4.7mph /  7.6km/h 87% 0in /  0.0mm
06:14 62.8 °F /  17.1 °C 58.8 °F /  14.9 °C 30.1in /  1020.4hPa SSO 2.9mph /  4.7km/h 4.7mph /  7.6km/h 87% 0in /  0.0mm
06:19 63 °F /  17.2 °C 59 °F /  15 °C 30.1in /  1020.4hPa SSO 2.7mph /  4.3km/h 3.6mph /  5.8km/h 87% 0in /  0.0mm
06:24 63 °F /  17.2 °C 59 °F /  15 °C 30.1in /  1020.4hPa SO 2.4mph /  3.9km/h 4.6mph /  7.4km/h 87% 0in /  0.0mm
06:29 63 °F /  17.2 °C 59 °F /  15 °C 30.1in /  1020.4hPa OSO 2.4mph /  3.9km/h 4.6mph /  7.4km/h 87% 0in /  0.0mm
06:34 63 °F /  17.2 °C 59 °F /  15 °C 30.1in /  1020.4hPa OSO 2.4mph /  3.9km/h 3.6mph /  5.8km/h 87% 0in /  0.0mm
06:39 63 °F /  17.2 °C 59 °F /  15 °C 30.1in /  1020.6hPa SO 2.2mph /  3.6km/h 5.2mph /  8.4km/h 87% 0in /  0.0mm
06:44 63 °F /  17.2 °C 59 °F /  15 °C 30.1in /  1020.6hPa SO 2mph /  3.2km/h 5.9mph /  9.5km/h 87% 0in /  0.0mm
06:49 63 °F /  17.2 °C 59 °F /  15 °C 30.1in /  1020.6hPa SSO 2.7mph /  4.3km/h 7.4mph /  11.9km/h 87% 0in /  0.0mm
06:54 63 °F /  17.2 °C 59.2 °F /  15.1 °C 30.1in /  1020.6hPa SSO 3.6mph /  5.8km/h 6.9mph /  11.1km/h 87.4% 0in /  0.0mm
06:59 63 °F /  17.2 °C 59.4 °F /  15.2 °C 30.1in /  1020.6hPa SO 3.9mph /  6.3km/h 4.6mph /  7.4km/h 88% 0in /  0.0mm
07:04 63.1 °F /  17.3 °C 59.5 °F /  15.3 °C 30.1in /  1020.6hPa SSO 4.3mph /  6.9km/h 5.2mph /  8.4km/h 88% 0in /  0.0mm
07:09 63.1 °F /  17.3 °C 59.5 °F /  15.3 °C 30.1in /  1020.6hPa Sur 3.8mph /  6.1km/h 4.7mph /  7.6km/h 88% 0in /  0.0mm
07:14 63 °F /  17.2 °C 59.4 °F /  15.2 °C 30.1in /  1020.6hPa SSO 3.1mph /  5km/h 5.2mph /  8.4km/h 88% 0in /  0.0mm
07:19 63 °F /  17.2 °C 59.4 °F /  15.2 °C 30.1in /  1020.6hPa SO 3.3mph /  5.3km/h 6.2mph /  10km/h 88% 0in /  0.0mm
07:24 63 °F /  17.2 °C 59.2 °F /  15.1 °C 30.1in /  1020.8hPa SO 3.6mph /  5.8km/h 6.4mph /  10.3km/h 87.7% 0in /  0.0mm
07:29 63 °F /  17.2 °C 59 °F /  15 °C 30.1in /  1020.8hPa SO 3.8mph /  6.1km/h 6.9mph /  11.1km/h 87.2% 0in /  0.0mm
07:34 63 °F /  17.2 °C 59.4 °F /  15.2 °C 30.1in /  1020.8hPa SO 4mph /  6.4km/h 5.9mph /  9.5km/h 88% 0in /  0.0mm
07:39 63 °F /  17.2 °C 59.4 °F /  15.2 °C 30.1in /  1020.8hPa OSO 4mph /  6.4km/h 6.9mph /  11.1km/h 88% 0in /  0.0mm
07:44 63 °F /  17.2 °C 59.4 °F /  15.2 °C 30.1in /  1020.8hPa OSO 4mph /  6.4km/h 7.4mph /  11.9km/h 88% 0in /  0.0mm
07:49 63 °F /  17.2 °C 59.2 °F /  15.1 °C 30.1in /  1020.8hPa SO 4.1mph /  6.6km/h 8.1mph /  13km/h 88% 0in /  0.0mm
07:54 62.8 °F /  17.1 °C 59.2 °F /  15.1 °C 30.2in /  1021.0hPa SSO 4.3mph /  6.9km/h 6.2mph /  10km/h 88% 0in /  0.0mm
07:59 62.8 °F /  17.1 °C 59.2 °F /  15.1 °C 30.2in /  1021.0hPa SO 4.2mph /  6.7km/h 5.9mph /  9.5km/h 88% 0in /  0.0mm
08:04 63 °F /  17.2 °C 59.2 °F /  15.1 °C 30.2in /  1021.0hPa SSO 4mph /  6.4km/h 5.2mph /  8.4km/h 88% 0in /  0.0mm
08:09 63 °F /  17.2 °C 59.4 °F /  15.2 °C 30.2in /  1021.2hPa Sur 3.6mph /  5.8km/h 6.9mph /  11.1km/h 88% 0in /  0.0mm
08:14 63 °F /  17.2 °C 59.4 °F /  15.2 °C 30.2in /  1021.2hPa SSO 3.1mph /  5km/h 5.9mph /  9.5km/h 88% 0in /  0.0mm
08:19 63.1 °F /  17.3 °C 59.4 °F /  15.2 °C 30.2in /  1021.2hPa SSO 3.3mph /  5.3km/h 5.8mph /  9.3km/h 88% 0in /  0.0mm
08:24 63.1 °F /  17.3 °C 59.4 °F /  15.2 °C 30.2in /  1021.2hPa Sur 3.6mph /  5.8km/h 4.7mph /  7.6km/h 87.5% 0in /  0.0mm
08:29 63.1 °F /  17.3 °C 59.4 °F /  15.2 °C 30.2in /  1021.2hPa Sur 3.4mph /  5.5km/h 5.8mph /  9.3km/h 87% 0in /  0.0mm
08:34 63.3 °F /  17.4 °C 59.4 °F /  15.2 °C 30.2in /  1021.2hPa SSE 3.1mph /  5km/h 5.2mph /  8.4km/h 87% 0in /  0.0mm
08:39 63.5 °F /  17.5 °C 59.5 °F /  15.3 °C 30.2in /  1021.3hPa SSE 3mph /  4.9km/h 4.6mph /  7.4km/h 87% 0in /  0.0mm
08:44 63.5 °F /  17.5 °C 59.7 °F /  15.4 °C 30.2in /  1021.3hPa SE 2.9mph /  4.7km/h 5.9mph /  9.5km/h 87% 0in /  0.0mm
08:49 63.7 °F /  17.6 °C 59.5 °F /  15.3 °C 30.2in /  1021.3hPa SSE 3.2mph /  5.1km/h 6.2mph /  10km/h 86.5% 0in /  0.0mm
08:54 63.7 °F /  17.6 °C 59.5 °F /  15.3 °C 30.2in /  1021.4hPa SSE 3.6mph /  5.8km/h 6.2mph /  10km/h 86.4% 0in /  0.0mm
08:59 63.7 °F /  17.6 °C 59.5 °F /  15.3 °C 30.2in /  1021.4hPa Sur 3.8mph /  6.1km/h 5.9mph /  9.5km/h 86% 0in /  0.0mm
09:04 63.9 °F /  17.7 °C 59.7 °F /  15.4 °C 30.2in /  1021.4hPa SSO 4mph /  6.4km/h 6.9mph /  11.1km/h 86.5% 0in /  0.0mm
09:09 64 °F /  17.8 °C 60.1 °F /  15.6 °C 30.2in /  1021.6hPa SSO 4mph /  6.4km/h 5.8mph /  9.3km/h 87% 0in /  0.0mm
09:14 64.2 °F /  17.9 °C 60.3 °F /  15.7 °C 30.2in /  1021.6hPa SO 4mph /  6.4km/h 4.6mph /  7.4km/h 87% 0in /  0.0mm
09:19 64.4 °F /  18 °C 60.4 °F /  15.8 °C 30.2in /  1021.6hPa SO 3.5mph /  5.7km/h 4.6mph /  7.4km/h 87% 0in /  0.0mm
09:24 64.6 °F /  18.1 °C 60.6 °F /  15.9 °C 30.2in /  1021.7hPa OSO 2.9mph /  4.7km/h 5.9mph /  9.5km/h 87% 0in /  0.0mm
09:29 64.8 °F /  18.2 °C 60.6 °F /  15.9 °C 30.2in /  1021.7hPa OSO 3mph /  4.8km/h 5.9mph /  9.5km/h 86.7% 0in /  0.0mm
09:34 64.6 °F /  18.1 °C 60.3 °F /  15.7 °C 30.2in /  1021.7hPa Oeste 3.1mph /  5km/h 5.9mph /  9.5km/h 86% 0in /  0.0mm
09:39 64.6 °F /  18.1 °C 60.3 °F /  15.7 °C 30.2in /  1021.9hPa Oeste 3.5mph /  5.6km/h 5.9mph /  9.5km/h 86% 0in /  0.0mm
09:44 64.8 °F /  18.2 °C 60.4 °F /  15.8 °C 30.2in /  1021.9hPa Oeste 4mph /  6.4km/h 5.8mph /  9.3km/h 86% 0in /  0.0mm
09:49 64.8 °F /  18.2 °C 60.4 °F /  15.8 °C 30.2in /  1021.9hPa Oeste 3.7mph /  5.9km/h 4.7mph /  7.6km/h 86% 0in /  0.0mm
09:54 64.9 °F /  18.3 °C 60.6 °F /  15.9 °C 30.2in /  1021.9hPa ONO 3.1mph /  5km/h 4.6mph /  7.4km/h 86% 0in /  0.0mm
09:59 65.1 °F /  18.4 °C 60.6 °F /  15.9 °C 30.2in /  1021.8hPa ONO 3mph /  4.8km/h 4.7mph /  7.6km/h 85.6% 0in /  0.0mm
10:04 65.5 °F /  18.6 °C 60.8 °F /  16 °C 30.2in /  1021.8hPa Oeste 2.9mph /  4.7km/h 5.2mph /  8.4km/h 85% 0in /  0.0mm
10:09 65.7 °F /  18.7 °C 61 °F /  16.1 °C 30.2in /  1022.1hPa Oeste 3mph /  4.8km/h 5.9mph /  9.5km/h 85% 0in /  0.0mm
10:14 65.7 °F /  18.7 °C 61 °F /  16.1 °C 30.2in /  1022.1hPa Oeste 3.1mph /  5km/h 6.2mph /  10km/h 85% 0in /  0.0mm
10:19 65.8 °F /  18.8 °C 61 °F /  16.1 °C 30.2in /  1022.1hPa OSO 3.3mph /  5.3km/h 6.2mph /  10km/h 84.3% 0in /  0.0mm
10:24 66 °F /  18.9 °C 61 °F /  16.1 °C 30.2in /  1022.3hPa SO 3.6mph /  5.8km/h 5.9mph /  9.5km/h 84% 0in /  0.0mm
10:29 66 °F /  18.9 °C 61 °F /  16.1 °C 30.2in /  1022.3hPa OSO 3.3mph /  5.3km/h 4.6mph /  7.4km/h 84% 0in /  0.0mm
10:34 66.2 °F /  19 °C 61.2 °F /  16.2 °C 30.2in /  1022.3hPa Oeste 2.9mph /  4.7km/h 4.6mph /  7.4km/h 83.9% 0in /  0.0mm
10:39 66.4 °F /  19.1 °C 61.3 °F /  16.3 °C 30.2in /  1022.3hPa ONO 2.5mph /  4.1km/h 2.4mph /  3.9km/h 83.8% 0in /  0.0mm
10:44 66.7 °F /  19.3 °C 61.3 °F /  16.3 °C 30.2in /  1022.3hPa ONO 2mph /  3.2km/h 2.9mph /  4.7km/h 83.2% 0in /  0.0mm
10:49 66.9 °F /  19.4 °C 61.5 °F /  16.4 °C 30.2in /  1022.3hPa Sur 1.9mph /  3.1km/h 5.2mph /  8.4km/h 82.7% 0in /  0.0mm
10:54 67.3 °F /  19.6 °C 61.5 °F /  16.4 °C 30.2in /  1022.5hPa SE 1.8mph /  2.9km/h 4.6mph /  7.4km/h 82% 0in /  0.0mm
10:59 67.8 °F /  19.9 °C 62.2 °F /  16.8 °C 30.2in /  1022.5hPa Sur 1.9mph /  3km/h 5.2mph /  8.4km/h 82.1% 0in /  0.0mm
11:04 68.2 °F /  20.1 °C 61.9 °F /  16.6 °C 30.2in /  1022.5hPa SSO 2mph /  3.2km/h 5.9mph /  9.5km/h 80.1% 0in /  0.0mm
11:09 68.4 °F /  20.2 °C 61.7 °F /  16.5 °C 30.2in /  1022.6hPa SO 2.4mph /  3.8km/h 5.2mph /  8.4km/h 79.6% 0in /  0.0mm
11:14 68.5 °F /  20.3 °C 61.9 °F /  16.6 °C 30.2in /  1022.6hPa ONO 2.9mph /  4.7km/h 5.8mph /  9.3km/h 79.2% 0in /  0.0mm
11:19 68.5 °F /  20.3 °C 61.5 °F /  16.4 °C 30.2in /  1022.6hPa OSO 2.7mph /  4.3km/h 6.2mph /  10km/h 78% 0in /  0.0mm
11:24 68.5 °F /  20.3 °C 61.5 °F /  16.4 °C 30.2in /  1022.6hPa SO 2.4mph /  3.9km/h 5.8mph /  9.3km/h 78.4% 0in /  0.0mm
11:29 68.5 °F /  20.3 °C 61.7 °F /  16.5 °C 30.2in /  1022.6hPa ONO 2.6mph /  4.2km/h 6.2mph /  10km/h 79% 0in /  0.0mm
11:34 68.5 °F /  20.3 °C 61.7 °F /  16.5 °C 30.2in /  1022.6hPa Oeste 2.9mph /  4.7km/h 5.9mph /  9.5km/h 78.8% 0in /  0.0mm
11:39 68.7 °F /  20.4 °C 61.7 °F /  16.5 °C 30.2in /  1022.7hPa ONO 3mph /  4.8km/h 5.2mph /  8.4km/h 78.7% 0in /  0.0mm
11:44 68.7 °F /  20.4 °C 61.7 °F /  16.5 °C 30.2in /  1022.7hPa Oeste 3.1mph /  5km/h 5.9mph /  9.5km/h 78% 0in /  0.0mm
11:49 69.1 °F /  20.6 °C 61.7 °F /  16.5 °C 30.2in /  1022.7hPa ONO 3.1mph /  5km/h 5.2mph /  8.4km/h 77.6% 0in /  0.0mm
11:54 69.3 °F /  20.7 °C 61.7 °F /  16.5 °C 30.2in /  1022.7hPa NO 3.1mph /  5km/h 7.4mph /  11.9km/h 77% 0in /  0.0mm
11:59 69.4 °F /  20.8 °C 61.7 °F /  16.5 °C 30.2in /  1022.6hPa ONO 3.1mph /  5km/h 5.9mph /  9.5km/h 76.2% 0in /  0.0mm
12:04 69.8 °F /  21 °C 61.9 °F /  16.6 °C 30.2in /  1022.6hPa OSO 3.1mph /  5km/h 4.7mph /  7.6km/h 76.1% 0in /  0.0mm
12:09 70.2 °F /  21.2 °C 61.9 °F /  16.6 °C 30.2in /  1022.6hPa SO 2.8mph /  4.5km/h 4.6mph /  7.4km/h 75.1% 0in /  0.0mm
12:14 70.5 °F /  21.4 °C 62.2 °F /  16.8 °C 30.2in /  1022.6hPa ONO 2.4mph /  3.9km/h 3.5mph /  5.6km/h 74.9% 0in /  0.0mm
12:19 71.1 °F /  21.7 °C 62.2 °F /  16.8 °C 30.2in /  1022.6hPa ONO 2mph /  3.2km/h 3.5mph /  5.6km/h 73.9% 0in /  0.0mm
12:24 71.4 °F /  21.9 °C 62.1 °F /  16.7 °C 30.2in /  1022.6hPa Oeste 1.4mph /  2.3km/h 3.6mph /  5.8km/h 72.6% 0in /  0.0mm
12:29 71.4 °F /  21.9 °C 61.9 °F /  16.6 °C 30.2in /  1022.5hPa OSO 1.6mph /  2.6km/h 4.6mph /  7.4km/h 72% 0in /  0.0mm
12:34 71.8 °F /  22.1 °C 62.2 °F /  16.8 °C 30.2in /  1022.5hPa OSO 2mph /  3.2km/h 4.6mph /  7.4km/h 72% 0in /  0.0mm
12:39 72 °F /  22.2 °C 62.2 °F /  16.8 °C 30.2in /  1022.5hPa Oeste 1.9mph /  3.1km/h 3.5mph /  5.6km/h 71.5% 0in /  0.0mm
12:44 72.1 °F /  22.3 °C 62.2 °F /  16.8 °C 30.2in /  1022.4hPa ONO 1.8mph /  2.9km/h 3.6mph /  5.8km/h 71% 0in /  0.0mm
12:49 72.3 °F /  22.4 °C 62.1 °F /  16.7 °C 30.2in /  1022.4hPa NO 1.9mph /  3km/h 5.9mph /  9.5km/h 70.1% 0in /  0.0mm
12:54 72.3 °F /  22.4 °C 62.1 °F /  16.7 °C 30.2in /  1022.4hPa NO 2mph /  3.2km/h 5.8mph /  9.3km/h 70% 0in /  0.0mm
12:59 72.1 °F /  22.3 °C 61.7 °F /  16.5 °C 30.2in /  1022.4hPa NO 2.5mph /  4km/h 5.2mph /  8.4km/h 70.1% 0in /  0.0mm
13:04 72.1 °F /  22.3 °C 62.1 °F /  16.7 °C 30.2in /  1022.4hPa NNO 3.1mph /  5km/h 2.9mph /  4.7km/h 71% 0in /  0.0mm
13:09 72.5 °F /  22.5 °C 62.4 °F /  16.9 °C 30.2in /  1022.4hPa NNO 2.6mph /  4.2km/h 5.2mph /  8.4km/h 70.8% 0in /  0.0mm
13:14 73 °F /  22.8 °C 62.2 °F /  16.8 °C 30.2in /  1022.2hPa NE 1.8mph /  2.9km/h 6.2mph /  10km/h 69.2% 0in /  0.0mm
13:19 73 °F /  22.8 °C 62.1 °F /  16.7 °C 30.2in /  1022.2hPa NO 2.2mph /  3.6km/h 5.2mph /  8.4km/h 68.1% 0in /  0.0mm
13:24 73 °F /  22.8 °C 62.1 °F /  16.7 °C 30.2in /  1022.2hPa NNO 2.9mph /  4.7km/h 4.7mph /  7.6km/h 68.4% 0in /  0.0mm
13:29 73.2 °F /  22.9 °C 62.2 °F /  16.8 °C 30.2in /  1022.1hPa ENE 2.9mph /  4.7km/h 5.9mph /  9.5km/h 68.7% 0in /  0.0mm
13:34 73 °F /  22.8 °C 62.1 °F /  16.7 °C 30.2in /  1022.1hPa NNE 2.9mph /  4.7km/h 8.1mph /  13km/h 68.4% 0in /  0.0mm
13:39 73 °F /  22.8 °C 62.2 °F /  16.8 °C 30.2in /  1022.1hPa NE 3.5mph /  5.6km/h 6.9mph /  11.1km/h 69% 0in /  0.0mm
13:44 72.9 °F /  22.7 °C 62.1 °F /  16.7 °C 30.2in /  1021.8hPa North 4.3mph /  6.9km/h 6.9mph /  11.1km/h 69% 0in /  0.0mm
13:49 73 °F /  22.8 °C 62.2 °F /  16.8 °C 30.2in /  1021.8hPa NE 4mph /  6.5km/h 6.9mph /  11.1km/h 69% 0in /  0.0mm
13:54 73 °F /  22.8 °C 62.2 °F /  16.8 °C 30.2in /  1021.8hPa NE 3.6mph /  5.8km/h 5.8mph /  9.3km/h 69% 0in /  0.0mm
13:59 73.2 °F /  22.9 °C 62.4 °F /  16.9 °C 30.2in /  1021.6hPa North 3.4mph /  5.4km/h 6.9mph /  11.1km/h 69% 0in /  0.0mm
14:04 73.4 °F /  23 °C 62.2 °F /  16.8 °C 30.2in /  1021.6hPa North 3.1mph /  5km/h 4.6mph /  7.4km/h 68% 0in /  0.0mm
14:09 73.6 °F /  23.1 °C 62.4 °F /  16.9 °C 30.2in /  1021.6hPa NE 3.1mph /  5km/h 7.4mph /  11.9km/h 68% 0in /  0.0mm
14:14 73.8 °F /  23.2 °C 62.4 °F /  16.9 °C 30.2in /  1021.5hPa NE 3.1mph /  5km/h 9.2mph /  14.8km/h 67.7% 0in /  0.0mm
14:19 73.9 °F /  23.3 °C 62.2 °F /  16.8 °C 30.2in /  1021.5hPa NNE 3.6mph /  5.8km/h 9.2mph /  14.8km/h 67.1% 0in /  0.0mm
14:24 74.3 °F /  23.5 °C 62.8 °F /  17.1 °C 30.2in /  1021.5hPa NE 4.3mph /  6.9km/h 9.2mph /  14.8km/h 67.5% 0in /  0.0mm
14:29 74.7 °F /  23.7 °C 62.8 °F /  17.1 °C 30.2in /  1021.2hPa NE 4.7mph /  7.5km/h 9.2mph /  14.8km/h 66.6% 0in /  0.0mm
14:34 74.8 °F /  23.8 °C 62.8 °F /  17.1 °C 30.2in /  1021.2hPa NE 5.2mph /  8.4km/h 7.4mph /  11.9km/h 65.9% 0in /  0.0mm
14:39 75 °F /  23.9 °C 62.4 °F /  16.9 °C 30.2in /  1021.2hPa NE 4.8mph /  7.8km/h 9.7mph /  15.6km/h 64.6% 0in /  0.0mm
14:44 75 °F /  23.9 °C 62.4 °F /  16.9 °C 30.2in /  1021.1hPa ENE 4.3mph /  6.9km/h 10.7mph /  17.2km/h 64.8% 0in /  0.0mm
14:49 75 °F /  23.9 °C 62.1 °F /  16.7 °C 30.2in /  1021.1hPa NE 4.3mph /  6.9km/h 10.4mph /  16.7km/h 64.1% 0in /  0.0mm
14:54 75.4 °F /  24.1 °C 62.4 °F /  16.9 °C 30.2in /  1021.1hPa NE 4.3mph /  6.9km/h 12.7mph /  20.4km/h 64.3% 0in /  0.0mm
14:59 75.6 °F /  24.2 °C 62.2 °F /  16.8 °C 30.1in /  1020.8hPa NE 5mph /  8.1km/h 10.4mph /  16.7km/h 63.7% 0in /  0.0mm
15:04 75.6 °F /  24.2 °C 62.1 °F /  16.7 °C 30.1in /  1020.8hPa NNE 5.9mph /  9.5km/h 10.4mph /  16.7km/h 63% 0in /  0.0mm
15:09 75.7 °F /  24.3 °C 62.2 °F /  16.8 °C 30.1in /  1020.8hPa NNE 5.7mph /  9.2km/h 11.5mph /  18.5km/h 63% 0in /  0.0mm
15:14 75.7 °F /  24.3 °C 62.1 °F /  16.7 °C 30.1in /  1020.7hPa NE 5.4mph /  8.7km/h 11.5mph /  18.5km/h 62.6% 0in /  0.0mm
15:19 75.9 °F /  24.4 °C 61.7 °F /  16.5 °C 30.1in /  1020.7hPa NNE 5.7mph /  9.2km/h 11.5mph /  18.5km/h 61.4% 0in /  0.0mm
15:24 75.9 °F /  24.4 °C 61.5 °F /  16.4 °C 30.1in /  1020.7hPa NE 6.2mph /  10km/h 12.7mph /  20.4km/h 61% 0in /  0.0mm
15:29 75.7 °F /  24.3 °C 61.3 °F /  16.3 °C 30.1in /  1020.5hPa NE 6.8mph /  10.9km/h 12.7mph /  20.4km/h 61% 0in /  0.0mm
15:34 76.1 °F /  24.5 °C 61.7 °F /  16.5 °C 30.1in /  1020.5hPa NNE 7.6mph /  12.2km/h 12.7mph /  20.4km/h 61% 0in /  0.0mm
15:39 76.5 °F /  24.7 °C 61.9 °F /  16.6 °C 30.1in /  1020.5hPa ENE 6.9mph /  11.1km/h 13.8mph /  22.2km/h 60.8% 0in /  0.0mm
15:44 76.5 °F /  24.7 °C 61.7 °F /  16.5 °C 30.1in /  1020.4hPa NE 5.9mph /  9.5km/h 11.5mph /  18.5km/h 60.3% 0in /  0.0mm
15:49 76.5 °F /  24.7 °C 61.7 °F /  16.5 °C 30.1in /  1020.4hPa NE 6.3mph /  10.2km/h 11.5mph /  18.5km/h 60.3% 0in /  0.0mm
15:54 76.5 °F /  24.7 °C 61.2 °F /  16.2 °C 30.1in /  1020.4hPa ENE 6.9mph /  11.1km/h 12.7mph /  20.4km/h 59.2% 0in /  0.0mm
15:59 76.1 °F /  24.5 °C 61 °F /  16.1 °C 30.1in /  1020.4hPa NE 6.5mph /  10.4km/h 10.4mph /  16.7km/h 59.3% 0in /  0.0mm
16:04 75.9 °F /  24.4 °C 60.8 °F /  16 °C 30.1in /  1020.4hPa NE 5.9mph /  9.5km/h 11.5mph /  18.5km/h 59.3% 0in /  0.0mm
16:09 75.9 °F /  24.4 °C 60.6 °F /  15.9 °C 30.1in /  1020.5hPa NE 6.1mph /  9.8km/h 10mph /  16.1km/h 59% 0in /  0.0mm
16:14 75.9 °F /  24.4 °C 60.6 °F /  15.9 °C 30.1in /  1020.5hPa ENE 6.4mph /  10.3km/h 10.4mph /  16.7km/h 59.1% 0in /  0.0mm
16:19 75.9 °F /  24.4 °C 60.6 °F /  15.9 °C 30.1in /  1020.5hPa NE 6.2mph /  10km/h 11.8mph /  19km/h 59% 0in /  0.0mm
16:24 76.1 °F /  24.5 °C 60.6 °F /  15.9 °C 30.1in /  1020.5hPa ENE 5.9mph /  9.5km/h 9.7mph /  15.6km/h 58.9% 0in /  0.0mm
16:29 76.5 °F /  24.7 °C 60.4 °F /  15.8 °C 30.1in /  1020.4hPa Este 6mph /  9.7km/h 12.7mph /  20.4km/h 58% 0in /  0.0mm
16:34 76.5 °F /  24.7 °C 60.3 °F /  15.7 °C 30.1in /  1020.4hPa ENE 6.2mph /  10km/h 11.5mph /  18.5km/h 57.4% 0in /  0.0mm
16:39 76.6 °F /  24.8 °C 60.8 °F /  16 °C 30.1in /  1020.5hPa ENE 6.2mph /  10km/h 8.5mph /  13.7km/h 58% 0in /  0.0mm
16:44 76.5 °F /  24.7 °C 60.3 °F /  15.7 °C 30.1in /  1020.5hPa ENE 6.2mph /  10km/h 9.2mph /  14.8km/h 57.1% 0in /  0.0mm
16:49 76.3 °F /  24.6 °C 59.9 °F /  15.5 °C 30.1in /  1020.5hPa NE 6.1mph /  9.8km/h 12.7mph /  20.4km/h 57% 0in /  0.0mm
16:54 75.9 °F /  24.4 °C 60.1 °F /  15.6 °C 30.1in /  1020.5hPa ENE 5.9mph /  9.5km/h 10.4mph /  16.7km/h 57.9% 0in /  0.0mm
16:59 75.9 °F /  24.4 °C 60.1 °F /  15.6 °C 30.1in /  1020.4hPa NE 5.7mph /  9.1km/h 10.7mph /  17.2km/h 58% 0in /  0.0mm
17:04 75.7 °F /  24.3 °C 59.9 °F /  15.5 °C 30.1in /  1020.4hPa NE 5.4mph /  8.7km/h 10.4mph /  16.7km/h 58% 0in /  0.0mm
17:09 75.7 °F /  24.3 °C 60.1 °F /  15.6 °C 30.1in /  1020.5hPa ENE 5.7mph /  9.2km/h 10.4mph /  16.7km/h 58% 0in /  0.0mm
17:14 75.7 °F /  24.3 °C 59.9 °F /  15.5 °C 30.1in /  1020.5hPa ENE 6.2mph /  10km/h 12.7mph /  20.4km/h 57.9% 0in /  0.0mm
17:19 75.9 °F /  24.4 °C 59.7 °F /  15.4 °C 30.1in /  1020.5hPa NE 6.1mph /  9.8km/h 9.7mph /  15.6km/h 57.3% 0in /  0.0mm
17:24 75.7 °F /  24.3 °C 59.9 °F /  15.5 °C 30.1in /  1020.5hPa NE 5.9mph /  9.5km/h 9.2mph /  14.8km/h 57.8% 0in /  0.0mm
17:29 75.9 °F /  24.4 °C 60.1 °F /  15.6 °C 30.1in /  1020.5hPa ENE 5.7mph /  9.2km/h 9.7mph /  15.6km/h 58% 0in /  0.0mm
17:34 75.9 °F /  24.4 °C 60.1 °F /  15.6 °C 30.1in /  1020.5hPa NE 5.4mph /  8.7km/h 10.7mph /  17.2km/h 58% 0in /  0.0mm
17:39 75.7 °F /  24.3 °C 59.9 °F /  15.5 °C 30.1in /  1020.6hPa ENE 5.3mph /  8.6km/h 10.4mph /  16.7km/h 58% 0in /  0.0mm
17:44 75.7 °F /  24.3 °C 59.9 °F /  15.5 °C 30.1in /  1020.6hPa NE 5.2mph /  8.4km/h 10mph /  16.1km/h 58% 0in /  0.0mm
17:49 75.6 °F /  24.2 °C 59.9 °F /  15.5 °C 30.1in /  1020.6hPa NE 5.7mph /  9.2km/h 11.5mph /  18.5km/h 58.4% 0in /  0.0mm
17:54 75.4 °F /  24.1 °C 60.1 °F /  15.6 °C 30.1in /  1020.6hPa NE 6.4mph /  10.3km/h 11.8mph /  19km/h 59% 0in /  0.0mm
17:59 75.4 °F /  24.1 °C 60.1 °F /  15.6 °C 30.1in /  1020.6hPa NE 6.2mph /  9.9km/h 9.2mph /  14.8km/h 59.1% 0in /  0.0mm
18:04 75.4 °F /  24.1 °C 60.1 °F /  15.6 °C 30.1in /  1020.6hPa ENE 5.9mph /  9.5km/h 9.2mph /  14.8km/h 59% 0in /  0.0mm
18:09 75.4 °F /  24.1 °C 60.1 °F /  15.6 °C 30.1in /  1020.7hPa Este 5.4mph /  8.7km/h 10.2mph /  16.4km/h 59% 0in /  0.0mm
18:14 75.4 °F /  24.1 °C 60.3 °F /  15.7 °C 30.1in /  1020.7hPa Este 4.7mph /  7.6km/h 10.4mph /  16.7km/h 59.6% 0in /  0.0mm
18:19 75.4 °F /  24.1 °C 60.4 °F /  15.8 °C 30.1in /  1020.7hPa Este 5.2mph /  8.4km/h 9.2mph /  14.8km/h 60% 0in /  0.0mm
18:24 75.4 °F /  24.1 °C 60.6 °F /  15.9 °C 30.1in /  1020.8hPa Este 5.9mph /  9.5km/h 9.7mph /  15.6km/h 60.4% 0in /  0.0mm
18:29 75 °F /  23.9 °C 60.8 °F /  16 °C 30.1in /  1020.8hPa Este 5.9mph /  9.5km/h 9.2mph /  14.8km/h 61% 0in /  0.0mm
18:34 75 °F /  23.9 °C 61 °F /  16.1 °C 30.1in /  1020.8hPa ENE 5.9mph /  9.5km/h 10.2mph /  16.4km/h 61.7% 0in /  0.0mm
18:39 74.8 °F /  23.8 °C 60.8 °F /  16 °C 30.2in /  1020.9hPa ENE 5.4mph /  8.7km/h 11.5mph /  18.5km/h 61.8% 0in /  0.0mm
18:44 74.7 °F /  23.7 °C 60.6 °F /  15.9 °C 30.2in /  1020.9hPa ENE 4.7mph /  7.6km/h 10.7mph /  17.2km/h 62% 0in /  0.0mm
18:49 74.5 °F /  23.6 °C 60.8 °F /  16 °C 30.2in /  1020.9hPa ENE 5.2mph /  8.4km/h 8.5mph /  13.7km/h 62.5% 0in /  0.0mm
18:54 74.1 °F /  23.4 °C 61 °F /  16.1 °C 30.2in /  1021.1hPa ENE 5.9mph /  9.5km/h 12.7mph /  20.4km/h 63.5% 0in /  0.0mm
18:59 73.9 °F /  23.3 °C 61.3 °F /  16.3 °C 30.2in /  1021.1hPa NE 5.6mph /  9km/h 10.4mph /  16.7km/h 64.9% 0in /  0.0mm
19:04 73.6 °F /  23.1 °C 61.5 °F /  16.4 °C 30.2in /  1021.1hPa NE 5.2mph /  8.4km/h 10.7mph /  17.2km/h 66% 0in /  0.0mm
19:09 73.2 °F /  22.9 °C 61.5 °F /  16.4 °C 30.2in /  1021.3hPa NE 5.7mph /  9.1km/h 11.8mph /  19km/h 66.9% 0in /  0.0mm
19:14 72.9 °F /  22.7 °C 61.5 °F /  16.4 °C 30.2in /  1021.3hPa NE 6.4mph /  10.3km/h 10.4mph /  16.7km/h 67.7% 0in /  0.0mm
19:19 72.7 °F /  22.6 °C 61.7 °F /  16.5 °C 30.2in /  1021.3hPa NE 6.3mph /  10.2km/h 12.7mph /  20.4km/h 68.6% 0in /  0.0mm
19:24 72.3 °F /  22.4 °C 61.9 °F /  16.6 °C 30.2in /  1021.4hPa NE 6.2mph /  10km/h 12.7mph /  20.4km/h 69.7% 0in /  0.0mm
19:29 72.1 °F /  22.3 °C 62.2 °F /  16.8 °C 30.2in /  1021.4hPa NE 6.3mph /  10.1km/h 9.7mph /  15.6km/h 71% 0in /  0.0mm
19:34 72 °F /  22.2 °C 62.4 °F /  16.9 °C 30.2in /  1021.4hPa NE 6.4mph /  10.3km/h 8.1mph /  13km/h 71.9% 0in /  0.0mm
19:39 71.8 °F /  22.1 °C 62.4 °F /  16.9 °C 30.2in /  1021.7hPa ENE 5.5mph /  8.9km/h 9.7mph /  15.6km/h 72.1% 0in /  0.0mm
19:44 71.6 °F /  22 °C 62.6 °F /  17 °C 30.2in /  1021.7hPa ENE 4.3mph /  6.9km/h 9.2mph /  14.8km/h 73% 0in /  0.0mm
19:49 71.4 °F /  21.9 °C 62.2 °F /  16.8 °C 30.2in /  1021.7hPa NE 4.7mph /  7.5km/h 8.5mph /  13.7km/h 73% 0in /  0.0mm
19:54 71.2 °F /  21.8 °C 62.1 °F /  16.7 °C 30.2in /  1021.8hPa ENE 5.2mph /  8.4km/h 8.5mph /  13.7km/h 73% 0in /  0.0mm
19:59 71.1 °F /  21.7 °C 62.1 °F /  16.7 °C 30.2in /  1021.8hPa ENE 5mph /  8km/h 8.1mph /  13km/h 73% 0in /  0.0mm
20:04 71.1 °F /  21.7 °C 61.9 °F /  16.6 °C 30.2in /  1021.8hPa ENE 4.7mph /  7.6km/h 6.9mph /  11.1km/h 73% 0in /  0.0mm
20:09 70.9 °F /  21.6 °C 61.7 °F /  16.5 °C 30.2in /  1022.0hPa NE 4.4mph /  7.1km/h 6.9mph /  11.1km/h 73% 0in /  0.0mm
20:14 70.5 °F /  21.4 °C 61.9 °F /  16.6 °C 30.2in /  1022.0hPa NE 4mph /  6.4km/h 5.9mph /  9.5km/h 73.9% 0in /  0.0mm
20:19 70.5 °F /  21.4 °C 61.9 °F /  16.6 °C 30.2in /  1022.0hPa NE 3.9mph /  6.2km/h 5.8mph /  9.3km/h 74% 0in /  0.0mm
20:24 70.5 °F /  21.4 °C 61.9 °F /  16.6 °C 30.2in /  1022.3hPa NE 3.6mph /  5.8km/h 5.8mph /  9.3km/h 74% 0in /  0.0mm
20:29 70.3 °F /  21.3 °C 61.7 °F /  16.5 °C 30.2in /  1022.3hPa NE 3.6mph /  5.8km/h 5.9mph /  9.5km/h 74% 0in /  0.0mm
20:34 70.3 °F /  21.3 °C 61.7 °F /  16.5 °C 30.2in /  1022.3hPa NE 3.6mph /  5.8km/h 5.8mph /  9.3km/h 74% 0in /  0.0mm
20:39 70.3 °F /  21.3 °C 61.7 °F /  16.5 °C 30.2in /  1022.5hPa NE 3.4mph /  5.5km/h 5.2mph /  8.4km/h 74.1% 0in /  0.0mm
20:44 70.2 °F /  21.2 °C 61.9 °F /  16.6 °C 30.2in /  1022.5hPa NE 3.1mph /  5km/h 4.7mph /  7.6km/h 75% 0in /  0.0mm
20:49 70.2 °F /  21.2 °C 61.9 °F /  16.6 °C 30.2in /  1022.5hPa NE 3.1mph /  5km/h 5.9mph /  9.5km/h 75% 0in /  0.0mm
20:54 70 °F /  21.1 °C 61.7 °F /  16.5 °C 30.2in /  1022.8hPa NE 3.1mph /  5km/h 4.6mph /  7.4km/h 75.3% 0in /  0.0mm
20:59 69.6 °F /  20.9 °C 61.7 °F /  16.5 °C 30.2in /  1022.8hPa NNE 3mph /  4.8km/h 5.2mph /  8.4km/h 76% 0in /  0.0mm
21:04 69.4 °F /  20.8 °C 61.7 °F /  16.5 °C 30.2in /  1022.8hPa NNE 2.9mph /  4.7km/h 6.2mph /  10km/h 76.5% 0in /  0.0mm
21:09 69.1 °F /  20.6 °C 61.7 °F /  16.5 °C 30.2in /  1023.0hPa NE 3.5mph /  5.6km/h 6.9mph /  11.1km/h 77.4% 0in /  0.0mm
21:14 68.7 °F /  20.4 °C 61.7 °F /  16.5 °C 30.2in /  1023.0hPa NNE 4.3mph /  6.9km/h 6.9mph /  11.1km/h 78% 0in /  0.0mm
21:19 68.7 °F /  20.4 °C 61.9 °F /  16.6 °C 30.2in /  1023.0hPa NNE 4.2mph /  6.7km/h 6.2mph /  10km/h 78.9% 0in /  0.0mm
21:24 68.5 °F /  20.3 °C 61.9 °F /  16.6 °C 30.2in /  1023.2hPa NNE 4mph /  6.4km/h 7.4mph /  11.9km/h 79% 0in /  0.0mm
21:29 68.4 °F /  20.2 °C 61.9 °F /  16.6 °C 30.2in /  1023.2hPa NNE 4.1mph /  6.6km/h 8.1mph /  13km/h 79.6% 0in /  0.0mm
21:34 68.4 °F /  20.2 °C 61.9 °F /  16.6 °C 30.2in /  1023.2hPa NNE 4.3mph /  6.9km/h 7.4mph /  11.9km/h 80% 0in /  0.0mm
21:39 68.2 °F /  20.1 °C 62.1 °F /  16.7 °C 30.2in /  1023.4hPa NNE 4.7mph /  7.6km/h 7.4mph /  11.9km/h 80.8% 0in /  0.0mm
21:44 68.2 °F /  20.1 °C 62.1 °F /  16.7 °C 30.2in /  1023.4hPa NNE 5.2mph /  8.4km/h 6.9mph /  11.1km/h 81% 0in /  0.0mm
21:49 68.2 °F /  20.1 °C 62.1 °F /  16.7 °C 30.2in /  1023.4hPa NE 4.8mph /  7.8km/h 5.2mph /  8.4km/h 81% 0in /  0.0mm
21:54 68.2 °F /  20.1 °C 62.1 °F /  16.7 °C 30.2in /  1023.5hPa North 4.3mph /  6.9km/h 5.8mph /  9.3km/h 81% 0in /  0.0mm
21:59 68 °F /  20 °C 62.1 °F /  16.7 °C 30.2in /  1023.5hPa NNE 3.8mph /  6.1km/h 4.7mph /  7.6km/h 81% 0in /  0.0mm
22:04 67.8 °F /  19.9 °C 62.1 °F /  16.7 °C 30.2in /  1023.5hPa NNE 3.1mph /  5km/h 3.5mph /  5.6km/h 81.6% 0in /  0.0mm
22:09 67.8 °F /  19.9 °C 62.1 °F /  16.7 °C 30.2in /  1023.7hPa NNE 2.7mph /  4.3km/h 3.5mph /  5.6km/h 82% 0in /  0.0mm
22:14 67.8 °F /  19.9 °C 62.1 °F /  16.7 °C 30.2in /  1023.7hPa NNE 2mph /  3.2km/h 2.9mph /  4.7km/h 82% 0in /  0.0mm
22:19 67.6 °F /  19.8 °C 61.9 °F /  16.6 °C 30.2in /  1023.7hPa North 1.9mph /  3.1km/h 2.9mph /  4.7km/h 82% 0in /  0.0mm
22:24 67.6 °F /  19.8 °C 61.9 °F /  16.6 °C 30.2in /  1024.0hPa North 1.8mph /  2.9km/h 3.5mph /  5.6km/h 82% 0in /  0.0mm
22:29 67.5 °F /  19.7 °C 62.1 °F /  16.7 °C 30.2in /  1024.0hPa NNO 1.8mph /  2.9km/h 3.5mph /  5.6km/h 82.9% 0in /  0.0mm
22:34 67.5 °F /  19.7 °C 62.1 °F /  16.7 °C 30.2in /  1024.0hPa NNO 1.8mph /  2.9km/h 3.5mph /  5.6km/h 83% 0in /  0.0mm
22:39 67.3 °F /  19.6 °C 61.9 °F /  16.6 °C 30.2in /  1024.1hPa NNO 1.6mph /  2.6km/h 2.9mph /  4.7km/h 83% 0in /  0.0mm
22:44 67.3 °F /  19.6 °C 61.9 °F /  16.6 °C 30.2in /  1024.1hPa NNO 1.4mph /  2.3km/h 2.4mph /  3.9km/h 83% 0in /  0.0mm
22:49 67.3 °F /  19.6 °C 61.9 °F /  16.6 °C 30.2in /  1024.1hPa NNO 0.8mph /  1.3km/h 2.4mph /  3.9km/h 83.1% 0in /  0.0mm
22:54 67.3 °F /  19.6 °C 62.2 °F /  16.8 °C 30.3in /  1024.3hPa Calm   2.9mph /  4.7km/h 84% 0in /  0.0mm
22:59 67.3 °F /  19.6 °C 62.2 °F /  16.8 °C 30.3in /  1024.3hPa NNO 0.6mph /  1km/h 2.4mph /  3.9km/h 84% 0in /  0.0mm
23:04 67.3 °F /  19.6 °C 62.2 °F /  16.8 °C 30.3in /  1024.3hPa NNO 1.4mph /  2.3km/h 2.3mph /  3.7km/h 84% 0in /  0.0mm
23:09 67.1 °F /  19.5 °C 62.2 °F /  16.8 °C 30.3in /  1024.3hPa NNO 0.8mph /  1.3km/h 1.2mph /  1.9km/h 84% 0in /  0.0mm
23:14 67.1 °F /  19.5 °C 62.1 °F /  16.7 °C 30.3in /  1024.3hPa Calm     84% 0in /  0.0mm
23:19 66.9 °F /  19.4 °C 61.9 °F /  16.6 °C 30.3in /  1024.3hPa Calm   2.9mph /  4.7km/h 84% 0in /  0.0mm
23:24 66.9 °F /  19.4 °C 61.9 °F /  16.6 °C 30.3in /  1024.4hPa Calm   2.9mph /  4.7km/h 84% 0in /  0.0mm
23:29 66.9 °F /  19.4 °C 61.9 °F /  16.6 °C 30.3in /  1024.4hPa NNO 0.7mph /  1.1km/h 3.5mph /  5.6km/h 84% 0in /  0.0mm
23:34 66.9 °F /  19.4 °C 61.9 °F /  16.6 °C 30.3in /  1024.4hPa NNO 1.8mph /  2.9km/h 3.5mph /  5.6km/h 84% 0in /  0.0mm
23:39 66.9 °F /  19.4 °C 61.9 °F /  16.6 °C 30.3in /  1024.4hPa NNO 1.7mph /  2.7km/h 2.3mph /  3.7km/h 84% 0in /  0.0mm
23:44 66.9 °F /  19.4 °C 61.9 °F /  16.6 °C 30.3in /  1024.4hPa NNO 1.4mph /  2.3km/h 3.1mph /  5km/h 84% 0in /  0.0mm
23:49 66.7 °F /  19.3 °C 61.9 °F /  16.6 °C 30.3in /  1024.4hPa NNO 1.6mph /  2.5km/h 4.6mph /  7.4km/h 84.3% 0in /  0.0mm
23:54 66.7 °F /  19.3 °C 62.1 °F /  16.7 °C 30.3in /  1024.5hPa NNO 1.8mph /  2.9km/h 3.5mph /  5.6km/h 85% 0in /  0.0mm
23:59 66.6 °F /  19.2 °C 61.9 °F /  16.6 °C 30.3in /  1024.5hPa NNO 1.8mph /  2.9km/h 2.3mph /  3.7km/h 85% 0in /  0.0mm
Murcia-Puente Tocinos, Espa?a
Compliments of Weather Underground - 3 mb

La estación de MeteoMurcia.com, publica sus datos en los siguientes proyectos:

Weather Underground PWS IMURCIAP2 Meteoclimatic www.awekas.at

W3Counter
Web Analytics